X  Chiuso Dati meteorologici dell'aviazione (METAR)        LYNI Nis Airport
Temperatura
99°F Temperatura
55°F Punto di rugiada
24% Umidità



Vento
7 MPH
11 KM/O
3 M/S
6 KTS



110°
ESE
Condizioni attuali

Mostly Sunny Per lo piu' sereno
Pressione 1009 (hPa) - 29.8 (inHg)
Visibilità 6 (miglio) - 10 (km)
Aeroporto
Codice-Aeroporto LYNI

Posizione: Nis Airport
Distanza: 63 (mi)

Metar:
METAR LYNI 121600Z 11006KT 060V160 CAVOK 37/13 Q1011 NOSIG

Ore: 12-07-2024 18:00 CEST